Time;durP1;ratioP1;P1;durP2;ratioP2;P2;SDS_P1;SDS_P2;PMS_P1;PMS_P2;Temp;Humidity;BMP_temperature;BMP_pressure;BME280_temperature;BME280_humidity;BME280_pressure;Samples;Min_cycle;Max_cycle;Signal;HPM_P1;HPM_P2
2021/01/31 00:23:20;;;;;;;13.87;10.63;;;-1.20;99.90;;;;;;4865440;29;20492;-92
2021/01/31 00:25:57;;;;;;;13.43;10.47;;;-1.20;99.90;;;;;;4867129;29;20471;-92
2021/01/31 00:28:38;;;;;;;15.60;11.40;;;-1.20;99.90;;;;;;4850299;29;20567;-92
2021/01/31 00:31:08;;;;;;;15.23;11.30;;;-1.30;99.90;;;;;;4850658;29;20514;-92
2021/01/31 00:33:39;;;;;;;13.80;10.43;;;-1.20;99.90;;;;;;4866052;29;20483;-92
2021/01/31 00:36:13;;;;;;;14.60;10.87;;;-1.20;99.90;;;;;;4867682;29;20475;-92
2021/01/31 00:38:44;;;;;;;15.13;10.70;;;-1.20;99.90;;;;;;4866544;29;20488;-92
2021/01/31 00:41:16;;;;;;;13.17;10.70;;;-1.30;99.90;;;;;;4866063;29;20575;-92
2021/01/31 00:44:06;;;;;;;14.13;10.50;;;-1.20;99.90;;;;;;4867230;29;20761;-92
2021/01/31 00:46:41;;;;;;;12.97;10.83;;;-1.20;99.90;;;;;;4867356;29;20450;-92
2021/01/31 00:49:12;;;;;;;12.70;9.83;;;-1.20;99.90;;;;;;4866732;29;20535;-92
2021/01/31 00:51:41;;;;;;;12.53;10.27;;;-1.30;99.90;;;;;;4865942;29;20574;-92
2021/01/31 00:54:11;;;;;;;15.80;11.10;;;-1.30;99.90;;;;;;4866665;29;20481;-92
2021/01/31 00:56:46;;;;;;;13.40;10.53;;;-1.20;99.90;;;;;;4866671;29;20468;-92
2021/01/31 00:59:27;;;;;;;14.77;10.40;;;-1.30;99.90;;;;;;4866960;29;20513;-92
2021/01/31 01:04:53;;;;;;;13.43;10.40;;;-1.30;99.90;;;;;;4865731;29;20881;-92
2021/01/31 01:07:58;;;;;;;11.37;9.73;;;-1.30;99.90;;;;;;4866673;29;20550;-92
2021/01/31 01:10:31;;;;;;;14.00;10.80;;;-1.30;99.90;;;;;;4864077;29;20475;-92
2021/01/31 01:13:10;;;;;;;14.53;10.53;;;-1.30;99.90;;;;;;4865447;29;20480;-92
2021/01/31 01:15:57;;;;;;;13.13;10.23;;;-1.40;99.90;;;;;;4865776;29;20865;-92
2021/01/31 01:18:36;;;;;;;14.10;10.90;;;-1.40;99.90;;;;;;4865909;29;20464;-92
2021/01/31 01:24:12;;;;;;;13.97;10.83;;;-1.40;99.90;;;;;;4865104;29;20897;-92
2021/01/31 01:26:43;;;;;;;14.30;10.20;;;-1.50;99.90;;;;;;4865868;29;20479;-92
2021/01/31 01:32:18;;;;;;;13.63;10.50;;;-1.50;99.90;;;;;;4865730;29;20470;-92
2021/01/31 01:34:48;;;;;;;12.33;9.70;;;-1.50;99.90;;;;;;4866495;29;20595;-92
2021/01/31 01:37:19;;;;;;;14.73;10.60;;;-1.60;99.90;;;;;;4866123;29;20507;-92
2021/01/31 01:42:42;;;;;;;14.63;9.77;;;-1.50;99.90;;;;;;4864763;29;20470;-92
2021/01/31 01:48:07;;;;;;;14.07;9.83;;;-1.60;99.90;;;;;;4865292;29;20559;-92
2021/01/31 01:50:46;;;;;;;13.13;10.30;;;-1.70;99.90;;;;;;4865198;29;20474;-92
2021/01/31 01:53:26;;;;;;;16.17;11.80;;;-1.70;99.90;;;;;;4866372;29;20478;-92
2021/01/31 01:59:05;;;;;;;13.80;10.60;;;-1.70;99.90;;;;;;4864757;29;20439;-92
2021/01/31 02:07:18;;;;;;;14.07;10.50;;;-1.80;99.90;;;;;;4864508;29;20468;-92
2021/01/31 02:18:30;;;;;;;14.30;10.40;;;-1.80;99.90;;;;;;4865464;29;20981;-92
2021/01/31 02:21:40;;;;;;;14.30;10.33;;;-1.80;99.90;;;;;;4864258;29;20503;-93
2021/01/31 02:28:32;;;;;;;13.17;10.30;;;-1.80;99.90;;;;;;4864719;29;20558;-92
2021/01/31 02:31:32;;;;;;;17.03;10.47;;;-1.90;99.90;;;;;;4865381;29;20576;-92
2021/01/31 02:34:18;;;;;;;14.33;10.90;;;-2.00;99.90;;;;;;4865081;29;20778;-93
2021/01/31 02:45:29;;;;;;;16.40;11.30;;;-2.00;99.90;;;;;;4865051;29;20483;-92
2021/01/31 02:51:09;;;;;;;13.73;10.90;;;-2.10;99.90;;;;;;4862848;29;20937;-92
2021/01/31 02:53:44;;;;;;;13.80;10.80;;;-2.10;99.90;;;;;;4865774;29;20503;-92
2021/01/31 02:56:27;;;;;;;13.30;10.80;;;-2.20;99.90;;;;;;4865688;29;20602;-92
2021/01/31 03:13:10;;;;;;;16.27;10.20;;;-2.40;99.90;;;;;;4863980;29;20816;-93
2021/01/31 03:18:53;;;;;;;14.60;10.70;;;-2.50;99.90;;;;;;4864262;29;20472;-92
2021/01/31 03:24:36;;;;;;;16.27;11.83;;;-2.60;99.90;;;;;;4864039;29;20463;-92
2021/01/31 03:44:42;;;;;;;12.07;9.00;;;-3.00;99.90;;;;;;4864119;29;20471;-93
2021/01/31 03:47:28;;;;;;;13.53;9.73;;;-3.00;99.90;;;;;;4867304;29;20917;-93
2021/01/31 03:55:38;;;;;;;13.30;9.57;;;-3.00;99.90;;;;;;4867605;29;20438;-92
2021/01/31 04:12:33;;;;;;;15.10;11.10;;;-3.20;99.90;;;;;;4830926;29;20485;-92
2021/01/31 04:18:33;;;;;;;13.70;10.37;;;-3.20;99.90;;;;;;4829182;29;20466;-93
2021/01/31 04:29:51;;;;;;;14.13;10.30;;;-3.30;99.90;;;;;;4830654;29;20473;-92
2021/01/31 04:50:03;;;;;;;13.77;9.90;;;-3.40;99.90;;;;;;4834121;29;20755;-92
2021/01/31 04:58:53;;;;;;;19.30;11.03;;;-3.40;99.90;;;;;;4848050;29;20504;-92
2021/01/31 05:01:27;;;;;;;13.90;10.20;;;-3.50;99.90;;;;;;4848131;29;20946;-92
2021/01/31 05:06:53;;;;;;;15.23;9.63;;;-3.40;99.90;;;;;;4846855;29;20971;-92
2021/01/31 05:12:27;;;;;;;16.13;10.47;;;-3.50;99.90;;;;;;4846416;29;20469;-92
2021/01/31 05:24:27;;;;;;;14.97;9.80;;;-3.60;99.90;;;;;;4847877;29;20493;-92
2021/01/31 05:27:09;;;;;;;12.47;9.90;;;-3.60;99.90;;;;;;4847971;29;20534;-92
2021/01/31 05:35:25;;;;;;;14.17;9.87;;;-3.80;99.90;;;;;;4844909;29;20473;-92
2021/01/31 05:46:21;;;;;;;16.83;11.00;;;-3.80;99.90;;;;;;4828052;29;20904;-92
2021/01/31 05:48:56;;;;;;;16.87;11.50;;;-3.80;99.90;;;;;;4831542;29;20504;-92
2021/01/31 05:54:31;;;;;;;15.70;10.60;;;-3.80;99.90;;;;;;4847019;29;20768;-92
2021/01/31 05:57:24;;;;;;;14.57;9.60;;;-3.70;99.90;;;;;;4847734;29;20471;-92
2021/01/31 06:05:38;;;;;;;18.13;11.97;;;-3.70;99.90;;;;;;4867104;29;20495;-93
2021/01/31 06:16:52;;;;;;;15.43;11.90;;;-3.80;99.90;;;;;;4883814;29;20463;-92
2021/01/31 06:25:14;;;;;;;18.73;10.43;;;-3.80;99.90;;;;;;4884754;29;20443;-92
2021/01/31 06:28:02;;;;;;;14.37;9.97;;;-3.80;99.90;;;;;;4890533;29;20476;-92
2021/01/31 07:00:40;;;;;;;15.37;10.50;;;-4.40;99.90;;;;;;4879518;29;20477;-93
2021/01/31 07:03:56;;;;;;;17.67;11.10;;;-4.40;99.90;;;;;;4868989;29;20490;-93
2021/01/31 07:16:16;;;;;;;18.10;11.10;;;-4.60;99.90;;;;;;4863593;29;20491;-93
2021/01/31 07:22:06;;;;;;;16.37;10.90;;;-4.60;99.90;;;;;;4864607;29;20507;-93
2021/01/31 07:33:21;;;;;;;27.03;13.67;;;-4.60;99.90;;;;;;4859398;29;20452;-93
2021/01/31 07:36:18;;;;;;;17.50;11.67;;;-4.60;99.90;;;;;;4863037;29;20479;-93
2021/01/31 07:39:03;;;;;;;13.57;9.77;;;-4.50;99.90;;;;;;4863707;29;20478;-93
2021/01/31 07:56:37;;;;;;;16.87;12.57;;;-4.30;99.90;;;;;;4861565;29;20460;-93
2021/01/31 07:59:33;;;;;;;18.60;12.20;;;-4.20;99.90;;;;;;4868217;29;20574;-93
2021/01/31 08:11:10;;;;;;;16.90;12.20;;;-3.70;99.90;;;;;;4883038;29;20893;-93
2021/01/31 08:22:41;;;;;;;20.10;13.37;;;-2.70;99.90;;;;;;4885445;29;20548;-93
2021/01/31 08:28:28;;;;;;;20.27;13.43;;;-2.00;99.90;;;;;;4882253;29;20434;-92
2021/01/31 08:31:37;;;;;;;17.83;12.17;;;-1.50;99.90;;;;;;4876462;29;20753;-93
2021/01/31 08:39:38;;;;;;;19.20;13.07;;;-0.60;1.00;;;;;;4884799;29;20475;-92
2021/01/31 08:42:13;;;;;;;17.23;12.40;;;-0.30;99.90;;;;;;4885159;29;20600;-93
2021/01/31 08:45:06;;;;;;;16.70;12.30;;;0.00;1.00;;;;;;4877722;29;20486;-93
2021/01/31 08:47:46;;;;;;;14.23;11.40;;;0.20;1.00;;;;;;4879815;29;20467;-93
2021/01/31 08:50:19;;;;;;;15.83;11.67;;;0.60;1.00;;;;;;4881351;29;20980;-92
2021/01/31 08:52:47;;;;;;;15.67;12.20;;;0.80;99.90;;;;;;4875831;29;20475;-91
2021/01/31 08:55:23;;;;;;;15.37;12.07;;;0.90;99.90;;;;;;4885001;29;20454;-92
2021/01/31 08:57:57;;;;;;;14.73;12.13;;;0.70;99.90;;;;;;4884708;29;20577;-92
2021/01/31 09:00:27;;;;;;;13.60;10.37;;;0.80;99.90;;;;;;4884269;29;20901;-92
2021/01/31 09:02:55;;;;;;;15.60;11.50;;;1.00;99.90;;;;;;4880904;29;20602;-92
2021/01/31 09:05:22;;;;;;;14.77;11.00;;;1.00;99.90;;;;;;4884179;29;20511;-93
2021/01/31 09:07:53;;;;;;;15.20;11.67;;;1.00;45.10;;;;;;4883557;29;20482;-92
2021/01/31 09:10:40;;;;;;;13.97;10.83;;;1.20;13.50;;;;;;4882838;29;20932;-92
2021/01/31 09:13:10;;;;;;;14.40;11.87;;;1.40;1.00;;;;;;4877209;29;20788;-92
2021/01/31 09:15:44;;;;;;;12.50;9.90;;;1.50;1.00;;;;;;4860378;29;20831;-93
2021/01/31 09:18:19;;;;;;;15.90;11.03;;;1.60;1.00;;;;;;4866734;29;20465;-93
2021/01/31 09:20:52;;;;;;;11.60;9.73;;;1.60;1.00;;;;;;4884210;29;20759;-93
2021/01/31 09:23:37;;;;;;;14.17;9.60;;;1.80;1.00;;;;;;4883894;29;20499;-93
2021/01/31 09:26:09;;;;;;;14.00;10.70;;;1.80;1.00;;;;;;4884764;29;20588;-94
2021/01/31 09:31:35;;;;;;;13.60;10.03;;;1.90;1.00;;;;;;4880596;29;20445;-94
2021/01/31 12:32:54;;;;;;;6.93;6.33;;;7.60;1.00;;;;;;655870;23;21967;-85
2021/01/31 15:35:56;;;;;;;5.60;5.00;;;2.60;1.00;;;;;;655629;23;21950;-87
2021/01/31 15:55:33;;;;;;;23.70;13.60;;;2.30;1.00;;;;;;651352;23;21972;-88
2021/01/31 16:01:13;;;;;;;14.20;9.57;;;2.30;1.00;;;;;;655628;23;21928;-85
2021/01/31 16:03:50;;;;;;;11.30;6.93;;;2.20;1.00;;;;;;4864315;29;20505;-90
2021/01/31 16:09:01;;;;;;;9.30;7.10;;;2.10;1.00;;;;;;4866490;29;20822;-89
2021/01/31 16:11:40;;;;;;;9.30;6.63;;;2.00;1.00;;;;;;4865317;29;20564;-90
2021/01/31 17:06:55;;;;;;;9.53;7.00;;;1.00;99.90;;;;;;4880993;29;20923;-90
2021/01/31 17:51:14;;;;;;;14.53;9.30;;;1.00;99.90;;;;;;4845098;29;20808;-92
2021/01/31 17:53:43;;;;;;;11.83;10.50;;;0.90;99.90;;;;;;4847314;29;20482;-92
2021/01/31 17:56:12;;;;;;;12.30;9.90;;;0.90;99.90;;;;;;4846543;29;20806;-92
2021/01/31 17:58:39;;;;;;;15.17;11.90;;;1.00;99.90;;;;;;4846463;29;20480;-92
2021/01/31 18:01:07;;;;;;;12.90;9.47;;;1.00;99.90;;;;;;4846886;29;20471;-92
2021/01/31 18:03:37;;;;;;;11.50;9.40;;;1.00;99.90;;;;;;4846222;29;20479;-92
2021/01/31 18:06:04;;;;;;;12.80;9.93;;;1.00;99.90;;;;;;4846477;29;20484;-92
2021/01/31 18:08:35;;;;;;;12.17;8.47;;;1.00;99.90;;;;;;4846971;29;20485;-92
2021/01/31 18:11:03;;;;;;;13.33;9.67;;;1.00;99.90;;;;;;4846627;29;20572;-92
2021/01/31 18:13:31;;;;;;;11.53;8.60;;;1.00;99.90;;;;;;4845939;29;20480;-92
2021/01/31 18:16:01;;;;;;;12.27;8.90;;;1.00;99.90;;;;;;4846595;29;20459;-92
2021/01/31 18:18:28;;;;;;;11.40;9.63;;;1.10;99.90;;;;;;4845626;29;20926;-92
2021/01/31 18:20:56;;;;;;;17.60;9.53;;;1.00;99.90;;;;;;4846965;29;20451;-92
2021/01/31 18:23:23;;;;;;;12.30;10.07;;;1.10;99.90;;;;;;4846179;29;20577;-92
2021/01/31 18:26:08;;;;;;;12.37;9.70;;;1.10;99.90;;;;;;4846714;29;20494;-92
2021/01/31 18:28:38;;;;;;;12.80;9.57;;;1.10;99.90;;;;;;4846327;29;20489;-92
2021/01/31 18:31:05;;;;;;;12.93;9.70;;;1.20;99.90;;;;;;4846691;29;20435;-92
2021/01/31 18:33:36;;;;;;;14.33;9.53;;;1.10;99.90;;;;;;4846503;29;20515;-92
2021/01/31 18:36:04;;;;;;;12.53;9.87;;;1.20;99.90;;;;;;4845894;29;20492;-92
2021/01/31 18:38:31;;;;;;;12.47;9.20;;;1.20;99.90;;;;;;4847526;29;20480;-92
2021/01/31 18:41:00;;;;;;;13.47;10.77;;;1.20;99.90;;;;;;4846577;29;20465;-92
2021/01/31 18:43:31;;;;;;;15.80;12.40;;;1.20;99.90;;;;;;4845928;29;20856;-92
2021/01/31 18:45:57;;;;;;;13.90;10.10;;;1.20;99.90;;;;;;4846530;29;20459;-92
2021/01/31 18:48:25;;;;;;;13.30;9.57;;;1.30;99.90;;;;;;4846413;29;20462;-92
2021/01/31 18:50:53;;;;;;;16.73;13.67;;;1.30;99.90;;;;;;4846012;29;20973;-92
2021/01/31 18:53:24;;;;;;;17.90;12.87;;;1.30;99.90;;;;;;4846220;29;20561;-92
2021/01/31 18:55:51;;;;;;;17.50;10.20;;;1.30;99.90;;;;;;4846064;29;20488;-92
2021/01/31 18:58:19;;;;;;;17.17;11.97;;;1.30;99.90;;;;;;4845301;29;20470;-93
2021/01/31 19:00:48;;;;;;;20.57;15.77;;;1.30;99.90;;;;;;4845928;29;20481;-92
2021/01/31 19:03:16;;;;;;;13.30;9.70;;;1.30;99.90;;;;;;4846208;29;20570;-92
2021/01/31 19:05:46;;;;;;;14.37;11.23;;;1.30;99.90;;;;;;4846801;29;20489;-92
2021/01/31 19:08:14;;;;;;;15.03;11.43;;;1.30;99.90;;;;;;4846484;29;20485;-92
2021/01/31 19:10:42;;;;;;;15.30;11.30;;;1.30;99.90;;;;;;4846081;29;20519;-92
2021/01/31 19:13:11;;;;;;;16.07;12.27;;;1.20;99.90;;;;;;4829611;29;20969;-92
2021/01/31 19:15:41;;;;;;;13.53;11.27;;;1.30;99.90;;;;;;4847345;29;21003;-92
2021/01/31 19:18:10;;;;;;;13.10;10.43;;;1.20;99.90;;;;;;4849610;29;20914;-92
2021/01/31 19:20:38;;;;;;;15.70;13.00;;;1.30;99.90;;;;;;4849499;29;20496;-92
2021/01/31 19:23:12;;;;;;;13.80;10.60;;;1.30;99.90;;;;;;4848012;29;20505;-92
2021/01/31 19:25:44;;;;;;;14.30;11.60;;;1.30;99.90;;;;;;4849092;29;20574;-93
2021/01/31 19:28:12;;;;;;;14.00;10.27;;;1.30;99.90;;;;;;4833614;29;20786;-92
2021/01/31 19:30:41;;;;;;;15.60;11.17;;;1.30;99.90;;;;;;4833178;29;20476;-92
2021/01/31 19:33:12;;;;;;;15.00;11.00;;;1.30;99.90;;;;;;4849699;29;20484;-92
2021/01/31 19:35:40;;;;;;;17.03;11.13;;;1.30;99.90;;;;;;4843878;29;20464;-93
2021/01/31 19:38:10;;;;;;;18.10;12.30;;;1.40;99.90;;;;;;4827476;29;20511;-92
2021/01/31 19:40:37;;;;;;;15.67;11.73;;;1.30;99.90;;;;;;4849918;29;20907;-92
2021/01/31 19:43:05;;;;;;;16.80;10.80;;;1.30;99.90;;;;;;4832995;29;20501;-92
2021/01/31 19:45:37;;;;;;;12.23;9.70;;;1.30;99.90;;;;;;4832794;29;20541;-92
2021/01/31 19:48:08;;;;;;;19.20;12.50;;;1.30;99.90;;;;;;4850075;29;20500;-92
2021/01/31 19:50:40;;;;;;;16.53;12.70;;;1.30;99.90;;;;;;4836872;29;20510;-92
2021/01/31 19:53:12;;;;;;;17.77;10.60;;;1.40;99.90;;;;;;4831512;29;20500;-92
2021/01/31 19:55:41;;;;;;;16.97;12.67;;;1.50;99.90;;;;;;4815886;29;20960;-92
2021/01/31 19:58:12;;;;;;;17.80;12.67;;;1.40;99.90;;;;;;4831428;29;20800;-92
2021/01/31 20:00:41;;;;;;;18.57;12.60;;;1.50;99.90;;;;;;4832028;29;20481;-93
2021/01/31 20:03:08;;;;;;;16.13;12.00;;;1.50;99.90;;;;;;4838938;29;20500;-93
2021/01/31 20:05:39;;;;;;;16.83;11.43;;;1.50;99.90;;;;;;4846983;29;20484;-93
2021/01/31 20:08:10;;;;;;;17.33;11.57;;;1.50;99.90;;;;;;4831154;29;20513;-92
2021/01/31 20:10:38;;;;;;;14.20;11.33;;;1.50;99.90;;;;;;4846793;29;20484;-93
2021/01/31 20:13:11;;;;;;;14.67;11.07;;;1.50;99.90;;;;;;4833438;29;20477;-92
2021/01/31 20:15:39;;;;;;;15.60;12.00;;;1.60;99.90;;;;;;4841239;29;20760;-92
2021/01/31 20:18:09;;;;;;;16.87;11.57;;;1.60;99.90;;;;;;4848928;29;20484;-92
2021/01/31 20:20:37;;;;;;;13.60;11.10;;;1.60;99.90;;;;;;4848774;29;20489;-92
2021/01/31 20:23:05;;;;;;;15.23;11.03;;;1.60;99.90;;;;;;4843711;29;20528;-92
2021/01/31 20:25:36;;;;;;;15.10;11.03;;;1.60;99.90;;;;;;4821447;29;20477;-93
2021/01/31 20:28:07;;;;;;;15.50;10.63;;;1.60;99.90;;;;;;4829687;29;20515;-93
2021/01/31 20:30:38;;;;;;;14.73;11.00;;;1.60;1.00;;;;;;4848552;29;20484;-92
2021/01/31 20:33:07;;;;;;;14.70;11.17;;;1.60;1.00;;;;;;4848895;29;20479;-92
2021/01/31 20:35:39;;;;;;;13.90;11.17;;;1.60;1.00;;;;;;4811738;29;20472;-93
2021/01/31 20:40:51;;;;;;;15.60;12.10;;;1.70;1.00;;;;;;4830057;29;20450;-92
2021/01/31 20:43:19;;;;;;;15.17;10.80;;;1.60;1.00;;;;;;4814435;29;20497;-92
2021/01/31 20:45:47;;;;;;;15.40;10.90;;;1.60;1.00;;;;;;4831208;29;20996;-93
2021/01/31 20:48:21;;;;;;;14.73;11.03;;;1.70;1.00;;;;;;4830435;29;20478;-92
2021/01/31 20:50:50;;;;;;;16.83;12.30;;;1.70;1.00;;;;;;4844900;29;20516;-93
2021/01/31 20:53:22;;;;;;;16.73;9.90;;;1.70;1.00;;;;;;4832857;29;20920;-92
2021/01/31 20:55:50;;;;;;;15.80;11.90;;;1.70;1.00;;;;;;4848581;29;20492;-91
2021/01/31 20:58:21;;;;;;;15.30;12.00;;;1.70;1.00;;;;;;4848819;29;20488;-93
2021/01/31 21:00:50;;;;;;;27.13;16.57;;;1.80;1.00;;;;;;4848175;29;20480;-92
2021/01/31 21:03:27;;;;;;;15.60;12.17;;;1.80;1.00;;;;;;4846930;29;20508;-92
2021/01/31 22:02:55;;;;;;;18.80;14.33;;;1.80;1.00;;;;;;654910;23;21913;-86
2021/01/31 22:34:20;;;;;;;17.87;12.80;;;1.90;1.00;;;;;;4845066;29;20509;-91
2021/01/31 22:36:48;;;;;;;15.63;11.73;;;2.00;13.00;;;;;;4830599;29;20469;-91
2021/01/31 22:39:17;;;;;;;16.93;12.40;;;2.00;99.90;;;;;;4846280;29;20492;-91
2021/01/31 22:41:44;;;;;;;16.63;12.20;;;1.90;1.00;;;;;;4846295;29;20487;-91
2021/01/31 22:44:12;;;;;;;17.80;12.50;;;1.90;1.00;;;;;;4846686;29;20505;-91
2021/01/31 22:46:41;;;;;;;19.97;12.77;;;1.90;1.00;;;;;;4825236;29;20473;-91
2021/01/31 22:49:09;;;;;;;17.60;12.93;;;1.90;1.00;;;;;;4846473;29;20482;-92
2021/01/31 22:51:39;;;;;;;17.83;12.00;;;1.90;1.00;;;;;;4849367;29;20485;-91
2021/01/31 22:54:05;;;;;;;17.10;12.33;;;1.90;1.00;;;;;;4850113;29;20489;-91
2021/01/31 22:56:33;;;;;;;18.57;13.77;;;1.90;1.00;;;;;;4850301;29;20524;-91
2021/01/31 22:58:59;;;;;;;19.17;12.83;;;1.90;1.00;;;;;;4849684;29;20833;-91
2021/01/31 23:01:26;;;;;;;15.67;11.60;;;1.80;1.00;;;;;;4850244;29;20466;-91
2021/01/31 23:03:53;;;;;;;18.03;12.87;;;1.80;1.00;;;;;;4850148;29;20962;-91
2021/01/31 23:06:52;;;;;;;17.87;12.83;;;1.80;99.90;;;;;;4849720;29;20534;-91
2021/01/31 23:12:46;;;;;;;17.47;12.10;;;1.80;99.90;;;;;;4843691;29;20909;-91
2021/01/31 23:15:35;;;;;;;17.67;13.17;;;1.90;99.90;;;;;;4794058;29;20505;-90
2021/01/31 23:18:04;;;;;;;17.40;12.00;;;1.80;1.00;;;;;;4847736;29;20842;-90
2021/01/31 23:20:34;;;;;;;14.33;11.53;;;1.90;91.40;;;;;;4833294;29;20485;-90
2021/01/31 23:23:07;;;;;;;16.27;12.17;;;1.80;86.50;;;;;;4849369;29;20506;-91
2021/01/31 23:48:37;;;;;;;12.43;9.90;;;1.80;28.80;;;;;;655841;23;22042;-87
2021/01/31 23:51:05;;;;;;;16.23;11.20;;;1.80;99.90;;;;;;4865750;29;20816;-91
2021/01/31 23:53:35;;;;;;;14.30;11.83;;;1.80;99.90;;;;;;4867307;29;20472;-90
2021/01/31 23:56:03;;;;;;;12.60;9.50;;;1.80;1.00;;;;;;4863517;29;20476;-90
2021/01/31 23:58:30;;;;;;;13.20;10.20;;;1.80;1.00;;;;;;4849210;29;20478;-90
